createdAt,value
2023-01-15T00:00:52.725Z,99370.00
2023-01-15T00:01:54.554Z,99358.66
2023-01-15T00:02:56.405Z,99359.00
2023-01-15T00:03:59.600Z,99356.19
2023-01-15T00:05:03.612Z,99352.66
2023-01-15T00:06:05.709Z,99349.03
2023-01-15T00:07:07.547Z,99353.00
2023-01-15T00:08:09.511Z,99348.69
2023-01-15T00:09:14.933Z,99342.69
2023-01-15T00:10:17.139Z,99345.19
2023-01-15T00:11:20.021Z,99347.22
2023-01-15T00:12:21.839Z,99331.03
2023-01-15T00:13:23.730Z,99329.38
2023-01-15T00:14:25.556Z,99335.19
2023-01-15T00:15:27.776Z,99318.56
2023-01-15T00:16:30.483Z,99340.72
2023-01-15T00:17:32.261Z,99331.03
2023-01-15T00:18:34.290Z,99312.94
2023-01-15T00:19:36.093Z,99332.06
2023-01-15T00:20:37.895Z,99321.91
2023-01-15T00:21:39.715Z,99331.56
2023-01-15T00:22:41.471Z,99328.09
2023-01-15T00:24:02.690Z,99306.78
2023-01-15T00:25:23.761Z,99317.03
2023-01-15T00:26:47.934Z,99324.03
2023-01-15T00:27:49.748Z,99327.38
2023-01-15T00:28:51.781Z,99323.41
2023-01-15T00:29:53.678Z,99321.44
2023-01-15T00:30:55.532Z,99308.97
2023-01-15T00:32:00.109Z,99319.13
2023-01-15T00:33:01.958Z,99314.78
2023-01-15T00:34:04.303Z,99313.13
2023-01-15T00:35:07.517Z,99313.28
2023-01-15T00:36:09.434Z,99303.31
2023-01-15T00:37:11.235Z,99302.84
2023-01-15T00:38:13.018Z,99318.81
2023-01-15T00:39:14.892Z,99314.47
2023-01-15T00:40:19.016Z,99312.81
2023-01-15T00:41:20.873Z,99304.78
2023-01-15T00:42:24.199Z,99308.47
2023-01-15T00:43:25.984Z,99311.50
2023-01-15T00:44:27.887Z,99306.81
2023-01-15T00:45:29.760Z,99313.16
2023-01-15T00:46:31.713Z,99299.81
2023-01-15T00:47:33.556Z,99293.47
2023-01-15T00:48:36.267Z,99302.66
2023-01-15T00:49:38.031Z,99301.81
2023-01-15T00:50:39.952Z,99294.81
2023-01-15T00:51:41.789Z,99294.81
2023-01-15T00:52:43.632Z,99285.00
2023-01-15T00:53:45.543Z,99295.81
2023-01-15T00:54:48.437Z,99294.13
2023-01-15T00:55:50.387Z,99291.47
2023-01-15T00:56:52.646Z,99282.47
2023-01-15T00:57:54.481Z,99279.97
2023-01-15T00:58:56.389Z,99278.47
2023-01-15T00:59:58.335Z,99251.34
2023-01-15T01:01:03.523Z,99251.47
2023-01-15T01:02:05.532Z,99252.00
2023-01-15T01:03:08.217Z,99259.13
2023-01-15T01:04:10.095Z,99254.44
2023-01-15T01:05:12.077Z,99261.78
2023-01-15T01:06:13.835Z,99249.44
2023-01-15T01:07:16.234Z,99241.94
2023-01-15T01:08:18.250Z,99245.97
2023-01-15T01:09:20.195Z,99243.44
2023-01-15T01:10:22.224Z,99232.47
2023-01-15T01:11:26.885Z,99239.97
2023-01-15T01:12:28.770Z,99238.09
2023-01-15T01:13:30.873Z,99229.50
2023-01-15T01:14:33.174Z,99235.16
2023-01-15T01:15:36.498Z,99238.47
2023-01-15T01:16:39.915Z,99234.19
2023-01-15T01:17:41.746Z,99225.47
2023-01-15T01:18:44.312Z,99225.84
2023-01-15T01:19:46.234Z,99233.28
2023-01-15T01:20:48.022Z,99226.94
2023-01-15T01:21:50.616Z,99226.28
2023-01-15T01:22:53.091Z,99214.78
2023-01-15T01:23:57.875Z,99220.13
2023-01-15T01:24:59.705Z,99216.63
2023-01-15T01:26:01.537Z,99213.13
2023-01-15T01:27:03.436Z,99206.13
2023-01-15T01:28:05.376Z,99206.13
2023-01-15T01:29:07.339Z,99203.63
2023-01-15T01:30:09.868Z,99199.13
2023-01-15T01:31:11.792Z,99201.81
2023-01-15T01:32:13.823Z,99200.94
2023-01-15T01:33:15.631Z,99199.13
2023-01-15T01:34:18.268Z,99193.78
2023-01-15T01:35:20.368Z,99193.78
2023-01-15T01:36:35.079Z,99188.81
2023-01-15T01:37:36.937Z,99185.56
2023-01-15T01:38:38.735Z,99188.44
2023-01-15T01:39:40.670Z,99185.50
2023-01-15T01:40:42.851Z,99190.47
2023-01-15T01:41:45.737Z,99188.81
2023-01-15T01:42:47.535Z,99180.50
2023-01-15T01:43:55.038Z,99155.06
2023-01-15T01:45:07.982Z,99185.13
2023-01-15T01:46:09.790Z,99171.56
2023-01-15T01:47:18.849Z,99172.78
2023-01-15T01:48:26.947Z,99170.94
2023-01-15T01:49:29.566Z,99168.25
2023-01-15T01:50:34.227Z,99164.94
2023-01-15T01:51:40.207Z,99164.13
2023-01-15T01:53:06.812Z,99167.91
2023-01-15T01:54:11.254Z,99155.56
2023-01-15T01:55:16.824Z,99161.09
2023-01-15T01:56:19.358Z,99147.91
2023-01-15T01:57:22.448Z,99149.13
2023-01-15T01:58:31.173Z,99155.47
2023-01-15T01:59:34.149Z,99147.25
2023-01-15T02:00:38.701Z,99133.97
2023-01-15T02:01:40.830Z,99137.78
2023-01-15T02:02:45.525Z,99110.75
2023-01-15T02:03:47.583Z,99137.78
2023-01-15T02:04:50.049Z,99126.97
2023-01-15T02:05:58.532Z,99125.31
2023-01-15T02:07:03.602Z,99116.31
2023-01-15T02:08:06.816Z,99122.94
2023-01-15T02:09:09.374Z,99117.31
2023-01-15T02:10:16.465Z,99115.13
2023-01-15T02:11:21.536Z,99120.47
2023-01-15T02:12:30.911Z,99111.44
2023-01-15T02:13:39.227Z,99106.91
2023-01-15T02:14:58.691Z,99100.75
2023-01-15T02:16:07.168Z,99083.41
2023-01-15T02:17:31.783Z,99089.72
2023-01-15T02:18:58.949Z,99086.31
2023-01-15T02:20:24.314Z,99078.97
2023-01-15T02:21:35.824Z,99075.81
2023-01-15T02:22:40.324Z,99063.84
2023-01-15T02:24:13.509Z,99062.66
2023-01-15T02:25:58.573Z,99058.59
2023-01-15T02:27:12.378Z,99065.59
2023-01-15T02:28:36.249Z,99061.28
2023-01-15T02:29:49.918Z,99047.81
2023-01-15T02:31:12.755Z,99046.53
2023-01-15T02:32:20.406Z,99033.72
2023-01-15T02:33:31.035Z,99040.38
2023-01-15T02:34:38.263Z,99033.78
2023-01-15T02:35:51.048Z,99047.72
2023-01-15T02:37:06.446Z,99044.06
2023-01-15T02:38:13.569Z,99034.38
2023-01-15T02:39:17.981Z,99035.38
2023-01-15T02:40:22.503Z,99020.44
2023-01-15T02:41:33.675Z,99019.72
2023-01-15T02:42:36.948Z,99017.25
2023-01-15T02:43:40.292Z,99020.56
2023-01-15T02:44:48.080Z,99012.72
2023-01-15T02:45:54.252Z,99014.38
2023-01-15T02:46:58.590Z,99002.41
2023-01-15T02:48:08.493Z,99003.06
2023-01-15T02:49:15.127Z,98997.06
2023-01-15T02:50:23.363Z,98991.34
2023-01-15T02:51:31.329Z,98981.91
2023-01-15T02:52:39.399Z,98970.75
2023-01-15T02:53:44.490Z,98975.34
2023-01-15T02:54:53.382Z,98979.88
2023-01-15T02:55:59.797Z,98968.34
2023-01-15T02:57:06.228Z,98965.50
2023-01-15T02:58:12.067Z,98957.66
2023-01-15T02:59:25.018Z,98955.63
2023-01-15T03:00:31.521Z,98951.50
2023-01-15T03:01:51.592Z,98935.03
2023-01-15T03:03:03.901Z,98943.31
2023-01-15T03:04:17.658Z,98935.13
2023-01-15T03:05:43.749Z,98935.59
2023-01-15T03:07:08.688Z,98933.91
2023-01-15T03:08:13.216Z,98926.56
2023-01-15T03:09:16.322Z,98917.34
2023-01-15T03:10:19.924Z,98917.63
2023-01-15T03:11:22.269Z,98920.50
2023-01-15T03:13:04.897Z,98916.63
2023-01-15T03:14:26.995Z,98900.59
2023-01-15T03:16:01.172Z,98901.88
2023-01-15T03:17:48.740Z,98904.47
2023-01-15T03:19:01.362Z,98887.19
2023-01-15T03:20:14.876Z,98894.06
2023-01-15T03:21:22.884Z,98886.97
2023-01-15T03:22:44.212Z,98888.91
2023-01-15T03:23:51.409Z,98876.31
2023-01-15T03:24:57.488Z,98876.78
2023-01-15T03:25:59.451Z,98867.28
2023-01-15T03:27:03.877Z,98859.84
2023-01-15T03:28:07.240Z,98857.19
2023-01-15T03:29:10.686Z,98851.84
2023-01-15T03:30:20.081Z,98843.84
2023-01-15T03:31:24.257Z,98842.63
2023-01-15T03:32:26.446Z,98833.97
2023-01-15T03:33:30.016Z,98836.84
2023-01-15T03:34:40.471Z,98838.50
2023-01-15T03:35:52.894Z,98831.94
2023-01-15T03:37:19.654Z,98829.53
2023-01-15T03:38:25.584Z,98838.56
2023-01-15T03:39:28.907Z,98837.91
2023-01-15T03:41:14.648Z,98831.19
2023-01-15T03:42:43.444Z,98828.34
2023-01-15T03:44:02.267Z,98820.81
2023-01-15T03:45:25.255Z,98802.03
2023-01-15T03:46:40.402Z,98816.44
2023-01-15T03:47:56.844Z,98812.13
2023-01-15T03:49:11.874Z,98805.13
2023-01-15T03:50:34.163Z,98806.78
2023-01-15T03:51:50.079Z,98794.44
2023-01-15T03:52:55.001Z,98798.50
2023-01-15T03:53:59.656Z,98789.81
2023-01-15T03:55:26.367Z,98787.56
2023-01-15T03:56:44.846Z,98775.34
2023-01-15T03:58:14.328Z,98785.44
2023-01-15T03:59:23.382Z,98761.53
2023-01-15T04:00:43.402Z,98754.53
2023-01-15T04:01:47.144Z,98744.44
2023-01-15T04:02:50.605Z,98758.22
2023-01-15T04:03:55.872Z,98750.59
2023-01-15T04:05:01.007Z,98739.09
2023-01-15T04:06:06.759Z,98746.91
2023-01-15T04:07:10.012Z,98734.56
2023-01-15T04:08:13.517Z,98721.44
2023-01-15T04:09:17.016Z,98729.25
2023-01-15T04:10:20.312Z,98712.41
2023-01-15T04:11:25.890Z,98716.91
2023-01-15T04:12:34.089Z,98712.22
2023-01-15T04:13:37.248Z,98708.72
2023-01-15T04:14:39.594Z,98702.56
2023-01-15T04:15:43.810Z,98703.41
2023-01-15T04:16:45.895Z,98696.41
2023-01-15T04:17:48.525Z,98695.56
2023-01-15T04:18:51.626Z,98696.41
2023-01-15T04:19:53.675Z,98685.25
2023-01-15T04:20:55.789Z,98690.22
2023-01-15T04:21:57.892Z,98681.56
2023-01-15T04:22:59.810Z,98689.41
2023-01-15T04:24:01.836Z,98679.94
2023-01-15T04:25:05.787Z,98677.91
2023-01-15T04:26:07.868Z,98676.88
2023-01-15T04:27:09.664Z,98667.22
2023-01-15T04:28:13.043Z,98665.56
2023-01-15T04:29:14.873Z,98653.63
2023-01-15T04:30:17.589Z,98660.06
2023-01-15T04:31:19.939Z,98654.72
2023-01-15T04:32:21.903Z,98654.50
2023-01-15T04:33:23.877Z,98647.53
2023-01-15T04:34:27.769Z,98633.53
2023-01-15T04:35:29.547Z,98632.34
2023-01-15T04:36:31.567Z,98638.50
2023-01-15T04:37:33.338Z,98623.50
2023-01-15T04:38:38.129Z,98625.34
2023-01-15T04:39:39.992Z,98623.31
2023-01-15T04:41:00.240Z,98605.75
2023-01-15T04:42:20.385Z,98608.56
2023-01-15T04:43:40.711Z,98606.53
2023-01-15T04:44:42.576Z,98605.31
2023-01-15T04:45:45.571Z,98600.56
2023-01-15T04:46:48.714Z,98599.09
2023-01-15T04:47:50.484Z,98590.28
2023-01-15T04:48:52.743Z,98594.16
2023-01-15T04:49:54.523Z,98588.00
2023-01-15T04:50:56.308Z,98590.47
2023-01-15T04:51:58.181Z,98581.81
2023-01-15T04:52:59.958Z,98584.69
2023-01-15T04:54:05.980Z,98574.03
2023-01-15T04:55:08.121Z,98575.47
2023-01-15T04:56:10.233Z,98573.81
2023-01-15T04:57:12.241Z,98565.19
2023-01-15T04:58:14.013Z,98561.31
2023-01-15T04:59:17.032Z,98558.81
2023-01-15T05:00:19.191Z,98546.88
2023-01-15T05:01:21.160Z,98555.97
2023-01-15T05:02:23.156Z,98535.75
2023-01-15T05:03:25.034Z,98544.66
2023-01-15T05:04:26.861Z,98542.00
2023-01-15T05:05:28.763Z,98534.81
2023-01-15T05:06:31.523Z,98538.31
2023-01-15T05:07:33.349Z,98519.34
2023-01-15T05:08:35.624Z,98518.53
2023-01-15T05:09:37.662Z,98517.78
2023-01-15T05:10:39.448Z,98509.69
2023-01-15T05:11:41.440Z,98505.44
2023-01-15T05:12:43.436Z,98500.88
2023-01-15T05:13:45.288Z,98486.28
2023-01-15T05:14:47.103Z,98492.88
2023-01-15T05:15:48.936Z,98496.41
2023-01-15T05:16:50.713Z,98503.41
2023-01-15T05:17:52.504Z,98493.75
2023-01-15T05:18:58.332Z,98488.63
2023-01-15T05:20:00.209Z,98484.09
2023-01-15T05:21:02.033Z,98468.88
2023-01-15T05:22:03.954Z,98482.06
2023-01-15T05:23:05.756Z,98475.91
2023-01-15T05:24:12.973Z,98464.78
2023-01-15T05:25:14.877Z,98466.88
2023-01-15T05:26:17.416Z,98455.13
2023-01-15T05:27:19.190Z,98458.03
2023-01-15T05:28:21.050Z,98449.22
2023-01-15T05:29:22.811Z,98450.03
2023-01-15T05:30:24.660Z,98443.03
2023-01-15T05:31:27.410Z,98424.13
2023-01-15T05:32:30.624Z,98434.03
2023-01-15T05:33:32.464Z,98419.66
2023-01-15T05:34:34.317Z,98422.53
2023-01-15T05:35:36.175Z,98413.69
2023-01-15T05:36:38.344Z,98402.00
2023-01-15T05:37:40.166Z,98407.34
2023-01-15T05:38:42.243Z,98399.31
2023-01-15T05:39:44.031Z,98402.41
2023-01-15T05:40:45.800Z,98395.84
2023-01-15T05:41:50.707Z,98396.66
2023-01-15T05:42:53.773Z,98384.16
2023-01-15T05:43:56.920Z,98381.50
2023-01-15T05:44:58.699Z,98374.28
2023-01-15T05:46:02.651Z,98369.16
2023-01-15T05:47:07.602Z,98357.03
2023-01-15T05:48:09.623Z,98354.81
2023-01-15T05:49:14.061Z,98355.19
2023-01-15T05:50:16.259Z,98355.59
2023-01-15T05:51:18.224Z,98331.75
2023-01-15T05:52:19.967Z,98333.41
2023-01-15T05:54:26.554Z,98340.84
2023-01-15T05:55:28.328Z,98335.28
2023-01-15T05:56:30.311Z,98317.41
2023-01-15T05:57:33.065Z,98319.47
2023-01-15T05:58:35.263Z,98323.81
2023-01-15T05:59:37.060Z,98308.78
2023-01-15T06:00:38.934Z,98302.59
2023-01-15T06:01:41.098Z,98303.88
2023-01-15T06:02:43.032Z,98294.41
2023-01-15T06:03:45.012Z,98300.59
2023-01-15T06:04:46.826Z,98254.34
2023-01-15T06:05:55.380Z,98283.97
2023-01-15T06:06:57.377Z,98283.56
2023-01-15T06:08:01.218Z,98273.91
2023-01-15T06:09:04.640Z,98260.56
2023-01-15T06:10:07.086Z,98260.56
2023-01-15T06:11:09.140Z,98253.41
2023-01-15T06:12:10.943Z,98257.88
2023-01-15T06:13:13.562Z,98241.88
2023-01-15T06:14:15.941Z,98237.38
2023-01-15T06:15:17.927Z,98247.03
2023-01-15T06:16:19.822Z,98234.50
2023-01-15T06:17:21.674Z,98216.84
2023-01-15T06:18:24.069Z,98227.50
2023-01-15T06:19:25.872Z,98209.84
2023-01-15T06:20:27.696Z,98217.69
2023-01-15T06:21:29.836Z,98210.69
2023-01-15T06:22:31.648Z,98196.31
2023-01-15T06:23:36.708Z,98203.91
2023-01-15T06:24:38.688Z,98204.34
2023-01-15T06:25:40.543Z,98195.31
2023-01-15T06:26:42.463Z,98191.81
2023-01-15T06:27:44.680Z,98189.13
2023-01-15T06:28:47.120Z,98174.56
2023-01-15T06:29:48.903Z,98176.63
2023-01-15T06:30:50.735Z,98166.75
2023-01-15T06:31:52.548Z,98164.31
2023-01-15T06:32:54.600Z,98161.03
2023-01-15T06:33:56.578Z,98165.94
2023-01-15T06:34:58.362Z,98151.59
2023-01-15T06:36:05.955Z,98142.13
2023-01-15T06:37:07.755Z,98109.88
2023-01-15T06:38:09.631Z,98134.75
2023-01-15T06:39:11.654Z,98133.09
2023-01-15T06:40:13.763Z,98112.97
2023-01-15T06:41:39.415Z,98118.09
2023-01-15T06:42:59.636Z,98110.94
2023-01-15T06:44:20.232Z,98104.56
2023-01-15T06:45:40.404Z,98095.34
2023-01-15T06:47:05.405Z,98089.16
2023-01-15T06:48:08.071Z,98068.84
2023-01-15T06:49:09.817Z,98088.53
2023-01-15T06:50:12.619Z,98090.59
2023-01-15T06:51:18.916Z,98079.31
2023-01-15T06:52:21.223Z,98071.31
2023-01-15T06:53:23.152Z,98065.34
2023-01-15T06:54:25.169Z,98056.31
2023-01-15T06:55:27.009Z,98053.88
2023-01-15T06:56:28.933Z,98044.22
2023-01-15T06:57:30.774Z,98043.38
2023-01-15T06:58:32.541Z,98037.66
2023-01-15T06:59:34.335Z,98031.91
2023-01-15T07:00:36.377Z,98036.22
2023-01-15T07:01:38.291Z,98024.94
2023-01-15T07:02:41.412Z,98023.06
2023-01-15T07:03:43.250Z,98030.06
2023-01-15T07:04:46.264Z,98012.41
2023-01-15T07:05:48.127Z,98019.38
2023-01-15T07:06:50.151Z,98019.38
2023-01-15T07:07:52.259Z,98015.69
2023-01-15T07:08:54.072Z,98000.31
2023-01-15T07:09:56.075Z,98001.31
2023-01-15T07:11:09.601Z,98005.44
2023-01-15T07:12:11.502Z,97996.78
2023-01-15T07:13:13.345Z,97990.66
2023-01-15T07:14:23.924Z,97979.75
2023-01-15T07:15:25.691Z,97975.63
2023-01-15T07:16:30.243Z,97960.25
2023-01-15T07:17:32.032Z,97969.69
2023-01-15T07:18:34.087Z,97966.81
2023-01-15T07:19:36.148Z,97960.44
2023-01-15T07:20:37.929Z,97956.34
2023-01-15T07:21:40.273Z,97933.34
2023-01-15T07:22:42.204Z,97949.13
2023-01-15T07:23:44.027Z,97947.88
2023-01-15T07:24:45.893Z,97944.81
2023-01-15T07:25:47.741Z,97947.06
2023-01-15T07:26:49.585Z,97933.47
2023-01-15T07:27:51.652Z,97923.63
2023-01-15T07:28:53.571Z,97922.38
2023-01-15T07:29:55.487Z,97929.75
2023-01-15T07:30:58.999Z,97927.50
2023-01-15T07:32:00.810Z,97912.47
2023-01-15T07:33:02.588Z,97913.09
2023-01-15T07:34:05.252Z,97900.94
2023-01-15T07:35:07.219Z,97897.84
2023-01-15T07:36:09.216Z,97898.22
2023-01-15T07:37:11.717Z,97895.16
2023-01-15T07:39:15.497Z,97891.59
2023-01-15T07:40:18.213Z,97881.53
2023-01-15T07:41:39.004Z,97869.38
2023-01-15T07:42:59.545Z,97869.94
2023-01-15T07:44:19.690Z,97866.41
2023-01-15T07:45:40.013Z,97855.09
2023-01-15T07:47:00.472Z,97856.47
2023-01-15T07:48:20.980Z,97844.50
2023-01-15T07:49:41.194Z,97849.22
2023-01-15T07:50:42.992Z,97842.84
2023-01-15T07:51:44.864Z,97833.22
2023-01-15T07:52:46.765Z,97837.69
2023-01-15T07:53:48.609Z,97835.25
2023-01-15T07:54:50.886Z,97821.50
2023-01-15T07:55:52.736Z,97822.50
2023-01-15T07:56:55.772Z,97820.41
2023-01-15T07:57:57.623Z,97816.09
2023-01-15T07:58:59.382Z,97811.94
2023-01-15T08:00:01.197Z,97814.41
2023-01-15T08:01:03.138Z,97807.81
2023-01-15T08:02:05.079Z,97812.09
2023-01-15T08:03:07.064Z,97805.72
2023-01-15T08:04:10.021Z,97795.88
2023-01-15T08:05:12.548Z,97789.47
2023-01-15T08:06:14.435Z,97778.38
2023-01-15T08:07:16.328Z,97786.56
2023-01-15T08:08:18.915Z,97780.19
2023-01-15T08:09:20.787Z,97779.97
2023-01-15T08:10:22.607Z,97779.13
2023-01-15T08:11:42.671Z,97787.75
2023-01-15T08:13:02.961Z,97773.78
2023-01-15T08:14:23.585Z,97763.47
2023-01-15T08:15:26.309Z,97756.84
2023-01-15T08:16:28.156Z,97753.56
2023-01-15T08:17:30.254Z,97749.50
2023-01-15T08:18:32.115Z,97747.84
2023-01-15T08:19:33.943Z,97744.34
2023-01-15T08:20:36.740Z,97742.50
2023-01-15T08:21:38.524Z,97733.44
2023-01-15T08:22:41.281Z,97737.16
2023-01-15T08:23:43.694Z,97723.16
2023-01-15T08:24:45.589Z,97727.25
2023-01-15T08:25:47.377Z,97712.88
2023-01-15T08:26:49.188Z,97720.06
2023-01-15T08:27:52.247Z,97704.44
2023-01-15T08:28:54.043Z,97710.19
2023-01-15T08:29:56.784Z,97692.13
2023-01-15T08:30:58.717Z,97699.28
2023-01-15T08:32:03.084Z,97684.50
2023-01-15T08:33:05.203Z,97690.22
2023-01-15T08:34:10.135Z,97686.34
2023-01-15T08:35:13.179Z,97678.69
2023-01-15T08:36:16.060Z,97680.31
2023-01-15T08:37:17.871Z,97682.19
2023-01-15T08:38:19.635Z,97684.88
2023-01-15T08:39:21.482Z,97675.81
2023-01-15T08:40:23.336Z,97670.66
2023-01-15T08:41:25.244Z,97664.72
2023-01-15T08:42:27.087Z,97667.19
2023-01-15T08:43:31.241Z,97665.53
2023-01-15T08:44:33.269Z,97651.94
2023-01-15T08:45:35.179Z,97653.81
2023-01-15T08:46:37.046Z,97655.44
2023-01-15T08:47:38.831Z,97637.84
2023-01-15T08:48:40.605Z,97642.53
2023-01-15T08:49:42.751Z,97649.50
2023-01-15T08:50:44.656Z,97635.09
2023-01-15T08:51:50.046Z,97639.59
2023-01-15T08:52:51.855Z,97629.75
2023-01-15T08:53:53.613Z,97633.22
2023-01-15T08:54:55.485Z,97624.41
2023-01-15T08:55:57.276Z,97612.06
2023-01-15T08:57:00.206Z,97617.41
2023-01-15T08:58:02.023Z,97620.69
2023-01-15T08:59:08.027Z,97613.91
2023-01-15T09:00:10.479Z,97603.00
2023-01-15T09:01:16.123Z,97607.50
2023-01-15T09:02:18.409Z,97606.25
2023-01-15T09:03:20.214Z,97587.81
2023-01-15T09:04:22.369Z,97594.97
2023-01-15T09:05:24.279Z,97581.00
2023-01-15T09:06:26.414Z,97588.00
2023-01-15T09:07:28.270Z,97589.03
2023-01-15T09:08:30.319Z,97577.13
2023-01-15T09:09:33.502Z,97571.34
2023-01-15T09:10:35.417Z,97575.28
2023-01-15T09:11:40.460Z,97573.00
2023-01-15T09:12:42.384Z,97566.00
2023-01-15T09:13:44.524Z,97564.97
2023-01-15T09:14:56.302Z,97535.66
2023-01-15T09:16:07.363Z,97551.94
2023-01-15T09:17:09.702Z,97556.50
2023-01-15T09:18:12.802Z,97539.91
2023-01-15T09:19:14.648Z,97545.19
2023-01-15T09:20:16.547Z,97537.19
2023-01-15T09:21:18.412Z,97535.56
2023-01-15T09:22:20.214Z,97536.34
2023-01-15T09:23:22.259Z,97530.19
2023-01-15T09:24:24.286Z,97524.84
2023-01-15T09:25:26.130Z,97518.47
2023-01-15T09:26:34.353Z,97516.66
2023-01-15T09:27:37.838Z,97519.06
2023-01-15T09:28:39.670Z,97526.03
2023-01-15T09:29:41.512Z,97513.69
2023-01-15T09:30:43.385Z,97513.69
2023-01-15T09:31:45.212Z,97503.00
2023-01-15T09:32:47.373Z,97501.97
2023-01-15T09:33:49.155Z,97495.56
2023-01-15T09:34:50.973Z,97487.28
2023-01-15T09:35:53.306Z,97482.78
2023-01-15T09:36:55.123Z,97487.88
2023-01-15T09:37:57.046Z,97479.84
2023-01-15T09:38:59.785Z,97481.94
2023-01-15T09:40:03.636Z,97480.69
2023-01-15T09:41:33.936Z,97461.72
2023-01-15T09:42:35.749Z,97459.75
2023-01-15T09:44:02.110Z,97460.38
2023-01-15T09:45:13.522Z,97449.44
2023-01-15T09:46:37.944Z,97449.44
2023-01-15T09:47:46.155Z,97446.75
2023-01-15T09:49:14.214Z,97425.13
2023-01-15T09:50:28.052Z,97429.66
2023-01-15T09:51:51.542Z,97429.19
2023-01-15T09:53:38.311Z,97430.81
2023-01-15T09:54:55.939Z,97425.47
2023-01-15T09:56:00.227Z,97414.78
2023-01-15T09:57:02.868Z,97403.94
2023-01-15T09:58:06.520Z,97392.66
2023-01-15T09:59:39.981Z,97399.44
2023-01-15T10:00:46.971Z,97400.22
2023-01-15T10:01:50.088Z,97381.38
2023-01-15T10:03:31.683Z,97394.88
2023-01-15T10:04:43.486Z,97381.28
2023-01-15T10:05:52.869Z,97392.22
2023-01-15T10:07:06.055Z,97362.09
2023-01-15T10:08:23.913Z,97374.31
2023-01-15T10:09:35.136Z,97366.97
2023-01-15T10:10:48.008Z,97347.09
2023-01-15T10:12:18.469Z,97356.63
2023-01-15T10:13:35.897Z,97354.28
2023-01-15T10:14:46.010Z,97335.34
2023-01-15T10:15:48.535Z,97345.69
2023-01-15T10:16:51.155Z,97341.84
2023-01-15T10:17:57.068Z,97333.25
2023-01-15T10:19:02.694Z,97337.53
2023-01-15T10:20:04.962Z,97328.69
2023-01-15T10:21:35.716Z,97319.19
2023-01-15T10:22:49.873Z,97315.22
2023-01-15T10:24:27.012Z,97313.59
2023-01-15T10:25:39.799Z,97317.41
2023-01-15T10:26:56.409Z,97312.06
2023-01-15T10:28:05.527Z,97296.38
2023-01-15T10:29:13.854Z,97302.66
2023-01-15T10:30:44.035Z,97301.38
2023-01-15T10:32:01.703Z,97297.31
2023-01-15T10:33:30.539Z,97291.50
2023-01-15T10:35:08.240Z,97288.09
2023-01-15T10:36:39.591Z,97295.44
2023-01-15T10:37:49.769Z,97281.59
2023-01-15T10:39:22.495Z,97284.38
2023-01-15T10:40:30.954Z,97283.31
2023-01-15T10:42:06.416Z,97269.94
2023-01-15T10:43:16.887Z,97270.53
2023-01-15T10:44:27.533Z,97262.97
2023-01-15T10:45:49.515Z,97262.97
2023-01-15T10:46:59.228Z,97261.91
2023-01-15T10:48:10.092Z,97259.72
2023-01-15T10:49:17.688Z,97262.38
2023-01-15T10:50:22.907Z,97252.75
2023-01-15T10:51:42.104Z,97259.72
2023-01-15T10:52:50.405Z,97257.63
2023-01-15T10:54:04.032Z,97256.00
2023-01-15T10:55:14.123Z,97251.00
2023-01-15T10:56:37.662Z,97246.44
2023-01-15T10:58:09.040Z,97240.03
2023-01-15T10:59:11.503Z,97235.88
2023-01-15T11:00:13.795Z,97229.13
2023-01-15T11:01:23.508Z,97233.31
2023-01-15T11:02:38.261Z,97225.03
2023-01-15T11:03:43.485Z,97228.53
2023-01-15T11:04:45.780Z,97227.50
2023-01-15T11:05:47.862Z,97227.72
2023-01-15T11:06:49.801Z,97222.63
2023-01-15T11:08:26.384Z,97221.78
2023-01-15T11:09:31.013Z,97220.84
2023-01-15T11:10:33.644Z,97225.75
2023-01-15T11:12:16.172Z,97217.16
2023-01-15T11:13:44.352Z,97222.13
2023-01-15T11:15:05.632Z,97225.38
2023-01-15T11:16:44.352Z,97221.63
2023-01-15T11:18:05.169Z,97203.50
2023-01-15T11:19:42.221Z,97219.53
2023-01-15T11:20:46.596Z,97221.38
2023-01-15T11:21:49.863Z,97227.22
2023-01-15T11:22:52.123Z,97210.97
2023-01-15T11:23:56.185Z,97226.53
2023-01-15T11:25:03.289Z,97225.50
2023-01-15T11:26:05.594Z,97222.81
2023-01-15T11:27:07.733Z,97221.19
2023-01-15T11:28:15.233Z,97217.16
2023-01-15T11:29:30.616Z,97207.59
2023-01-15T11:30:37.740Z,97210.84
2023-01-15T11:31:40.971Z,97219.66
2023-01-15T11:32:42.860Z,97209.78
2023-01-15T11:33:57.860Z,97214.78
2023-01-15T11:35:03.126Z,97223.97
2023-01-15T11:36:08.157Z,97214.22
2023-01-15T11:37:10.691Z,97215.84
2023-01-15T11:38:15.760Z,97233.03
2023-01-15T11:39:28.628Z,97214.56
2023-01-15T11:40:30.711Z,97217.25
2023-01-15T11:41:52.996Z,97231.78
2023-01-15T11:43:13.410Z,97232.91
2023-01-15T11:44:34.759Z,97231.38
2023-01-15T11:46:11.780Z,97234.38
2023-01-15T11:47:36.912Z,97229.88
2023-01-15T11:49:05.430Z,97241.41
2023-01-15T11:50:36.845Z,97249.19
2023-01-15T11:51:47.461Z,97241.41
2023-01-15T11:52:53.812Z,97247.19
2023-01-15T11:54:03.149Z,97247.44
2023-01-15T11:55:12.995Z,97239.66
2023-01-15T11:56:21.002Z,97234.53
2023-01-15T11:57:30.049Z,97241.53
2023-01-15T11:58:44.847Z,97236.97
2023-01-15T11:59:50.269Z,97235.13
2023-01-15T12:00:58.391Z,97228.13
2023-01-15T12:02:05.143Z,97234.28
2023-01-15T12:03:15.770Z,97225.47
2023-01-15T12:04:38.585Z,97233.59
2023-01-15T12:05:48.124Z,97223.84
2023-01-15T12:06:50.340Z,97224.72
2023-01-15T12:07:55.523Z,97218.47
2023-01-15T12:09:05.125Z,97221.75
2023-01-15T12:10:41.183Z,97225.00
2023-01-15T12:11:56.028Z,97214.38
2023-01-15T12:13:05.480Z,97219.72
2023-01-15T12:14:54.322Z,97231.94
2023-01-15T12:16:15.538Z,97227.28
2023-01-15T12:17:23.291Z,97238.81
2023-01-15T12:18:45.783Z,97244.97
2023-01-15T12:19:59.462Z,97239.88
2023-01-15T12:21:29.344Z,97239.03
2023-01-15T12:22:50.642Z,97238.00
2023-01-15T12:24:16.601Z,97238.00
2023-01-15T12:25:21.302Z,97239.63
2023-01-15T12:26:31.905Z,97238.47
2023-01-15T12:28:13.329Z,97235.88
2023-01-15T12:29:18.027Z,97240.44
2023-01-15T12:30:28.028Z,97232.75
2023-01-15T12:31:37.494Z,97246.75
2023-01-15T12:32:43.651Z,97236.84
2023-01-15T12:33:59.579Z,97242.19
2023-01-15T12:35:15.961Z,97243.81
2023-01-15T12:36:38.382Z,97239.03
2023-01-15T12:37:50.840Z,97242.53
2023-01-15T12:39:22.686Z,97244.75
2023-01-15T12:40:40.632Z,97247.16
2023-01-15T12:42:05.575Z,97248.69
2023-01-15T12:43:42.123Z,97246.59
2023-01-15T12:45:06.143Z,97243.69
2023-01-15T12:46:12.838Z,97242.06
2023-01-15T12:47:19.004Z,97245.22
2023-01-15T12:49:03.785Z,97251.16
2023-01-15T12:50:45.251Z,97237.88
2023-01-15T12:52:04.326Z,97239.72
2023-01-15T12:53:31.921Z,97244.00
2023-01-15T12:54:51.671Z,97246.13
2023-01-15T12:56:00.192Z,97234.25
2023-01-15T12:57:15.759Z,97235.22
2023-01-15T12:58:27.984Z,97241.72
2023-01-15T12:59:41.485Z,97249.19
2023-01-15T13:00:44.096Z,97245.09
2023-01-15T13:02:23.442Z,97249.75
2023-01-15T13:03:30.361Z,97237.41
2023-01-15T13:05:10.577Z,97252.69
2023-01-15T13:06:14.383Z,97260.81
2023-01-15T13:07:16.241Z,97257.78
2023-01-15T13:08:24.085Z,97261.97
2023-01-15T13:09:37.632Z,97262.81
2023-01-15T13:10:41.170Z,97265.50
2023-01-15T13:11:42.984Z,97264.66
2023-01-15T13:12:45.113Z,97272.13
2023-01-15T13:13:58.215Z,97266.97
2023-01-15T13:15:02.307Z,97274.53
2023-01-15T13:16:22.624Z,97270.84
2023-01-15T13:17:47.438Z,97262.47
2023-01-15T13:19:04.019Z,97274.66